createdAt,value
2017-06-20T00:04:32.865Z,100.000
2017-06-20T00:16:19.367Z,100.000
2017-06-20T00:19:03.519Z,100.000
2017-06-20T00:21:57.685Z,100.000
2017-06-20T00:24:52.621Z,100.000
2017-06-20T00:30:14.612Z,100.000
2017-06-20T00:51:04.234Z,100.000
2017-06-20T00:54:10.914Z,100.000
2017-06-20T01:40:06.038Z,100.000
2017-06-20T01:46:47.263Z,100.000
2017-06-20T02:32:27.567Z,100.000
2017-06-20T03:00:14.296Z,100.000
2017-06-20T05:47:21.897Z,100.000
2017-06-20T05:52:44.359Z,100.000
2017-06-20T05:55:29.119Z,100.000
2017-06-20T06:05:33.151Z,100.000
2017-06-20T06:08:17.601Z,100.000
2017-06-20T06:11:12.184Z,100.000
2017-06-20T06:14:07.415Z,100.000
2017-06-20T06:17:02.702Z,100.000
2017-06-20T06:19:58.144Z,100.000
2017-06-20T06:22:53.746Z,100.000
2017-06-20T06:26:00.463Z,100.000
2017-06-20T06:28:51.318Z,100.000
2017-06-20T06:31:46.769Z,100.000
2017-06-20T06:34:42.293Z,100.000
2017-06-20T06:37:39.605Z,100.000
2017-06-20T06:40:33.579Z,100.000
2017-06-20T06:43:29.219Z,100.000
2017-06-20T06:46:24.815Z,100.000
2017-06-20T06:49:20.357Z,100.000
2017-06-20T06:52:16.018Z,100.000
2017-06-20T06:55:11.685Z,100.000
2017-06-20T06:58:07.358Z,100.000
2017-06-20T07:01:04.721Z,100.000
2017-06-20T07:03:58.560Z,100.000
2017-06-20T07:06:54.159Z,100.000
2017-06-20T07:09:49.890Z,100.000
2017-06-20T07:12:45.665Z,100.000
2017-06-20T07:15:41.328Z,100.000
2017-06-20T07:18:37.028Z,100.000
2017-06-20T07:21:32.757Z,100.000
2017-06-20T07:24:28.446Z,100.000
2017-06-20T07:27:24.078Z,100.000
2017-06-20T07:30:19.692Z,100.000
2017-06-20T07:33:15.403Z,100.000
2017-06-20T07:36:11.140Z,100.000
2017-06-20T07:39:06.876Z,100.000
2017-06-20T07:42:02.593Z,100.000
2017-06-20T07:44:58.432Z,100.000
2017-06-20T07:47:54.242Z,100.000
2017-06-20T07:50:50.027Z,100.000
2017-06-20T07:53:45.801Z,100.000
2017-06-20T07:56:41.679Z,100.000
2017-06-20T07:59:37.549Z,100.000
2017-06-20T08:02:33.245Z,100.000
2017-06-20T08:05:29.032Z,100.000
2017-06-20T08:08:24.947Z,100.000
2017-06-20T08:11:22.535Z,100.000
2017-06-20T08:14:16.736Z,100.000
2017-06-20T08:17:12.694Z,100.000
2017-06-20T08:20:08.665Z,100.000
2017-06-20T08:23:04.676Z,100.000
2017-06-20T08:26:00.744Z,100.000
2017-06-20T08:28:56.758Z,100.000
2017-06-20T08:31:52.712Z,100.000
2017-06-20T08:34:48.762Z,98.411
2017-06-20T08:37:44.690Z,100.000
2017-06-20T08:40:40.614Z,95.636
2017-06-20T08:43:36.667Z,96.513
2017-06-20T08:46:32.700Z,100.000
2017-06-20T08:49:28.724Z,91.299
2017-06-20T08:52:24.783Z,92.909
2017-06-20T08:55:20.853Z,94.350
2017-06-20T08:58:16.906Z,85.419
2017-06-20T09:01:13.076Z,87.203
2017-06-20T09:04:09.292Z,85.603
2017-06-20T09:07:05.470Z,84.787
2017-06-20T09:10:01.675Z,83.653
2017-06-20T09:12:57.989Z,76.335
2017-06-20T09:15:54.271Z,80.878
2017-06-20T09:18:50.550Z,77.138
2017-06-20T09:21:46.799Z,70.596
2017-06-20T09:24:42.974Z,76.784
2017-06-20T09:27:39.135Z,75.954
2017-06-20T09:30:35.297Z,76.187
2017-06-20T09:33:31.357Z,67.535
2017-06-20T09:36:27.367Z,71.232
2017-06-20T09:39:23.371Z,71.890
2017-06-20T09:42:19.292Z,76.070
2017-06-20T09:45:15.038Z,72.691
2017-06-20T09:48:10.986Z,75.958
2017-06-20T09:51:07.181Z,77.640
2017-06-20T09:54:03.596Z,78.253
2017-06-20T09:56:59.623Z,80.292
2017-06-20T09:59:55.840Z,80.581
2017-06-20T10:02:51.840Z,78.667
2017-06-20T10:05:48.031Z,77.256
2017-06-20T10:08:44.133Z,76.965
2017-06-20T10:11:40.353Z,70.570
2017-06-20T10:14:36.357Z,67.688
2017-06-20T10:17:32.264Z,71.896
2017-06-20T10:20:28.010Z,73.162
2017-06-20T10:23:25.562Z,77.586
2017-06-20T10:26:19.976Z,73.976
2017-06-20T10:29:16.305Z,75.891
2017-06-20T10:32:12.431Z,78.043
2017-06-20T10:35:08.448Z,69.686
2017-06-20T10:38:04.427Z,66.087
2017-06-20T10:41:00.342Z,70.134
2017-06-20T10:43:56.225Z,71.703
2017-06-20T10:46:52.241Z,68.639
2017-06-20T10:49:48.050Z,69.113
2017-06-20T10:52:44.025Z,68.592
2017-06-20T10:55:39.877Z,73.750
2017-06-20T10:58:35.739Z,68.209
2017-06-20T11:01:31.509Z,72.034
2017-06-20T11:04:27.407Z,75.593
2017-06-20T11:07:23.268Z,74.322
2017-06-20T11:10:19.230Z,75.926
2017-06-20T11:13:15.157Z,72.349
2017-06-20T11:16:11.084Z,73.746
2017-06-20T11:19:06.954Z,77.273
2017-06-20T11:22:02.836Z,74.219
2017-06-20T11:24:58.779Z,75.008
2017-06-20T11:27:54.634Z,74.737
2017-06-20T11:30:50.483Z,74.009
2017-06-20T11:33:46.264Z,75.790
2017-06-20T11:36:42.160Z,76.041
2017-06-20T11:39:38.078Z,76.852
2017-06-20T11:42:33.884Z,77.285
2017-06-20T11:45:29.819Z,80.171
2017-06-20T11:48:25.768Z,76.709
2017-06-20T11:51:21.730Z,78.111
2017-06-20T11:54:19.491Z,76.963
2017-06-20T11:57:13.505Z,78.195
2017-06-20T12:00:09.377Z,81.059
2017-06-20T12:03:05.410Z,77.076
2017-06-20T12:06:01.305Z,77.185
2017-06-20T12:08:57.134Z,81.148
2017-06-20T12:11:52.976Z,76.007
2017-06-20T12:14:48.837Z,74.067
2017-06-20T12:17:44.686Z,72.843
2017-06-20T12:20:42.249Z,71.189
2017-06-20T12:23:36.432Z,73.637
2017-06-20T12:26:32.299Z,70.868
2017-06-20T12:29:28.209Z,64.575
2017-06-20T12:32:23.962Z,65.126
2017-06-20T12:35:19.861Z,64.781
2017-06-20T12:38:15.733Z,71.005
2017-06-20T12:41:11.596Z,67.056
2017-06-20T12:44:07.471Z,64.938
2017-06-20T12:47:03.245Z,68.719
2017-06-20T12:49:59.053Z,66.000
2017-06-20T12:52:54.853Z,68.224
2017-06-20T12:55:50.677Z,67.521
2017-06-20T12:58:46.628Z,62.584
2017-06-20T13:01:42.313Z,65.939
2017-06-20T13:04:38.171Z,69.867
2017-06-20T13:07:33.989Z,70.975
2017-06-20T13:10:29.927Z,74.079
2017-06-20T13:13:25.814Z,72.666
2017-06-20T13:16:21.722Z,69.011
2017-06-20T13:19:17.523Z,72.378
2017-06-20T13:22:13.381Z,70.246
2017-06-20T13:25:09.178Z,66.579
2017-06-20T13:28:04.983Z,67.179
2017-06-20T13:31:00.640Z,66.122
2017-06-20T13:33:56.533Z,69.164
2017-06-20T13:36:52.321Z,61.182
2017-06-20T13:39:47.984Z,65.375
2017-06-20T13:42:43.647Z,67.002
2017-06-20T13:45:39.503Z,71.057
2017-06-20T13:48:35.251Z,68.027
2017-06-20T13:51:31.121Z,71.472
2017-06-20T13:54:26.915Z,73.237
2017-06-20T13:57:22.793Z,74.877
2017-06-20T14:00:18.660Z,76.317
2017-06-20T14:03:14.400Z,79.370
2017-06-20T14:06:10.321Z,78.107
2017-06-20T14:09:06.210Z,81.108
2017-06-20T14:12:02.122Z,79.697
2017-06-20T14:14:57.931Z,80.179
2017-06-20T14:17:53.726Z,80.275
2017-06-20T14:20:49.494Z,80.137
2017-06-20T14:23:45.348Z,78.316
2017-06-20T14:26:41.113Z,80.045
2017-06-20T14:29:36.813Z,80.251
2017-06-20T14:32:34.357Z,79.075
2017-06-20T14:35:28.428Z,80.600
2017-06-20T14:38:24.093Z,80.661
2017-06-20T14:41:19.820Z,79.338
2017-06-20T14:44:15.671Z,81.250
2017-06-20T14:47:11.482Z,79.973
2017-06-20T14:50:09.116Z,77.455
2017-06-20T14:53:03.119Z,70.658
2017-06-20T14:55:58.948Z,70.597
2017-06-20T14:58:54.735Z,72.667
2017-06-20T15:01:50.432Z,69.974
2017-06-20T15:04:46.182Z,67.670
2017-06-20T15:07:41.912Z,73.470
2017-06-20T15:10:37.740Z,70.018
2017-06-20T15:13:33.519Z,69.615
2017-06-20T15:16:29.259Z,73.259
2017-06-20T15:19:25.065Z,73.286
2017-06-20T15:22:20.727Z,73.065
2017-06-20T15:25:16.431Z,75.072
2017-06-20T15:28:12.116Z,72.625
2017-06-20T15:31:07.880Z,71.486
2017-06-20T15:34:03.720Z,69.980
2017-06-20T15:37:01.254Z,72.405
2017-06-20T15:39:55.109Z,69.857
2017-06-20T15:42:50.786Z,70.371
2017-06-20T15:45:48.369Z,70.271
2017-06-20T15:48:42.330Z,65.687
2017-06-20T15:51:38.066Z,63.656
2017-06-20T15:54:33.726Z,65.431
2017-06-20T15:57:29.490Z,65.449
2017-06-20T16:00:25.230Z,67.559
2017-06-20T16:03:20.958Z,69.492
2017-06-20T16:06:16.578Z,67.154
2017-06-20T16:09:12.173Z,68.726
2017-06-20T16:12:07.893Z,73.523
2017-06-20T16:15:03.618Z,74.528
2017-06-20T16:17:59.499Z,75.572
2017-06-20T16:20:55.154Z,76.836
2017-06-20T16:23:50.864Z,74.293
2017-06-20T16:26:46.544Z,75.520
2017-06-20T16:29:42.210Z,73.446
2017-06-20T16:32:38.680Z,76.900
2017-06-20T16:35:33.698Z,78.426
2017-06-20T16:38:29.345Z,79.858
2017-06-20T16:41:26.641Z,79.479
2017-06-20T16:44:20.554Z,80.613
2017-06-20T16:47:17.829Z,80.558
2017-06-20T16:50:11.801Z,81.537
2017-06-20T16:53:07.437Z,80.971
2017-06-20T16:56:03.025Z,79.041
2017-06-20T16:58:58.622Z,77.616
2017-06-20T17:01:54.144Z,79.496
2017-06-20T17:04:49.734Z,80.169
2017-06-20T17:07:45.377Z,79.839
2017-06-20T17:10:41.026Z,78.903
2017-06-20T17:13:36.731Z,79.173
2017-06-20T17:16:32.369Z,76.447
2017-06-20T17:19:27.919Z,77.415
2017-06-20T17:22:23.421Z,76.996
2017-06-20T17:25:20.617Z,77.507
2017-06-20T17:28:14.473Z,75.824
2017-06-20T17:31:09.946Z,76.740
2017-06-20T17:34:05.536Z,75.123
2017-06-20T17:37:01.138Z,75.313
2017-06-20T17:39:56.627Z,74.232
2017-06-20T17:42:52.174Z,76.682
2017-06-20T17:45:47.738Z,76.628
2017-06-20T17:48:43.261Z,76.922
2017-06-20T17:51:38.744Z,77.061
2017-06-20T17:54:34.298Z,77.733
2017-06-20T17:57:29.876Z,77.653
2017-06-20T18:00:25.298Z,79.080
2017-06-20T18:03:20.856Z,77.612
2017-06-20T18:06:16.258Z,78.915
2017-06-20T18:09:11.763Z,79.026
2017-06-20T18:12:07.165Z,81.748
2017-06-20T18:15:02.896Z,80.554
2017-06-20T18:17:58.312Z,81.227
2017-06-20T18:20:53.816Z,82.208
2017-06-20T18:23:49.247Z,82.119
2017-06-20T18:26:44.564Z,83.255
2017-06-20T18:29:40.103Z,84.444
2017-06-20T18:32:35.686Z,85.454
2017-06-20T18:35:31.051Z,85.649
2017-06-20T18:38:26.503Z,86.462
2017-06-20T18:41:21.962Z,86.325
2017-06-20T18:44:17.268Z,86.604
2017-06-20T18:47:14.419Z,87.331
2017-06-20T18:50:08.226Z,87.263
2017-06-20T18:53:03.591Z,89.242
2017-06-20T18:55:59.030Z,87.807
2017-06-20T18:58:54.403Z,89.888
2017-06-20T19:01:49.728Z,88.921
2017-06-20T19:04:45.302Z,92.520
2017-06-20T19:07:40.741Z,92.592
2017-06-20T19:10:36.092Z,90.195
2017-06-20T19:13:31.318Z,91.458
2017-06-20T19:16:26.760Z,92.026
2017-06-20T19:19:22.123Z,91.890
2017-06-20T19:22:17.533Z,92.159
2017-06-20T19:25:12.815Z,94.732
2017-06-20T19:28:08.235Z,94.975
2017-06-20T19:31:03.600Z,95.791
2017-06-20T19:33:58.944Z,95.521
2017-06-20T19:36:54.239Z,97.344
2017-06-20T19:39:49.465Z,97.163
2017-06-20T19:42:44.745Z,99.855
2017-06-20T19:45:41.940Z,98.978
2017-06-20T19:48:35.449Z,100.000
2017-06-20T19:51:30.717Z,100.000
2017-06-20T19:54:25.800Z,100.000
2017-06-20T19:57:20.992Z,100.000
2017-06-20T20:00:16.024Z,100.000
2017-06-20T20:03:11.143Z,100.000
2017-06-20T20:06:06.088Z,100.000
2017-06-20T20:09:01.061Z,100.000
2017-06-20T20:11:56.060Z,100.000
2017-06-20T20:14:50.964Z,100.000
2017-06-20T20:17:45.775Z,100.000
2017-06-20T20:20:40.651Z,100.000
2017-06-20T20:23:35.789Z,100.000
2017-06-20T20:26:30.754Z,100.000
2017-06-20T20:29:25.827Z,100.000
2017-06-20T20:32:20.715Z,100.000
2017-06-20T20:35:17.582Z,100.000
2017-06-20T20:38:10.594Z,100.000
2017-06-20T20:41:05.400Z,100.000
2017-06-20T20:44:00.296Z,100.000
2017-06-20T20:46:55.139Z,100.000
2017-06-20T20:49:51.780Z,100.000
2017-06-20T20:52:44.929Z,100.000
2017-06-20T20:55:39.763Z,100.000
2017-06-20T20:58:34.598Z,100.000
2017-06-20T21:01:31.168Z,100.000
2017-06-20T21:04:24.573Z,100.000
2017-06-20T21:07:19.324Z,100.000
2017-06-20T21:10:14.137Z,100.000
2017-06-20T21:13:08.934Z,100.000
2017-06-20T21:16:03.645Z,100.000
2017-06-20T21:18:58.455Z,100.000
2017-06-20T21:21:53.408Z,100.000
2017-06-20T21:24:50.049Z,100.000
2017-06-20T21:27:43.519Z,100.000
2017-06-20T21:30:38.522Z,100.000
2017-06-20T21:33:33.605Z,100.000
2017-06-20T21:36:28.688Z,100.000
2017-06-20T21:39:23.924Z,100.000
2017-06-20T21:42:18.882Z,100.000
2017-06-20T21:45:13.987Z,100.000
2017-06-20T21:48:08.932Z,100.000
2017-06-20T21:51:03.991Z,100.000
2017-06-20T21:53:59.017Z,100.000
2017-06-20T21:56:54.272Z,100.000
2017-06-20T21:59:51.118Z,100.000
2017-06-20T22:02:44.674Z,100.000
2017-06-20T22:05:39.740Z,100.000
2017-06-20T22:08:34.879Z,100.000
2017-06-20T22:11:29.939Z,100.000
2017-06-20T22:14:25.023Z,100.000
2017-06-20T22:17:21.814Z,100.000
2017-06-20T22:20:14.955Z,100.000
2017-06-20T22:23:09.913Z,100.000
2017-06-20T22:26:04.723Z,100.000
2017-06-20T22:28:59.611Z,100.000
2017-06-20T22:31:54.574Z,100.000
2017-06-20T22:34:51.096Z,100.000
2017-06-20T22:37:44.347Z,100.000
2017-06-20T22:40:39.261Z,100.000
2017-06-20T22:43:36.182Z,100.000
2017-06-20T22:46:31.099Z,100.000
2017-06-20T22:49:24.306Z,100.000
2017-06-20T22:52:19.229Z,100.000
2017-06-20T22:55:15.990Z,100.000
2017-06-20T22:58:09.172Z,100.000
2017-06-20T23:01:04.094Z,100.000
2017-06-20T23:03:59.152Z,100.000
2017-06-20T23:06:54.028Z,100.000
2017-06-20T23:09:48.810Z,100.000
2017-06-20T23:12:43.709Z,100.000
2017-06-20T23:15:38.576Z,100.000
2017-06-20T23:18:35.101Z,100.000
2017-06-20T23:21:28.353Z,100.000
2017-06-20T23:24:23.282Z,100.000
2017-06-20T23:27:18.256Z,100.000
2017-06-20T23:30:13.221Z,100.000
2017-06-20T23:33:08.114Z,100.000
2017-06-20T23:36:02.908Z,100.000
2017-06-20T23:38:57.746Z,100.000
2017-06-20T23:41:54.351Z,100.000
2017-06-20T23:44:47.398Z,100.000
2017-06-20T23:47:42.425Z,100.000
2017-06-20T23:50:37.166Z,100.000
2017-06-20T23:53:31.855Z,100.000
2017-06-20T23:56:26.714Z,100.000
2017-06-20T23:59:23.130Z,100.000
